Time;durP1;ratioP1;P1;durP2;ratioP2;P2;SDS_P1;SDS_P2;PMS_P1;PMS_P2;Temp;Humidity;BMP_temperature;BMP_pressure;BME280_temperature;BME280_humidity;BME280_pressure;Samples;Min_cycle;Max_cycle;Signal;HPM_P1;HPM_P2
2022/07/13 00:01:19;;;;;;;1.73;1.53;;;19.60;86.30;;;;;;5053685;28;20468;-61
2022/07/13 00:03:48;;;;;;;1.90;1.37;;;19.60;86.50;;;;;;5052625;28;20452;-61
2022/07/13 00:06:15;;;;;;;4.53;1.60;;;19.60;87.10;;;;;;5052700;28;20440;-61
2022/07/13 00:08:42;;;;;;;2.03;1.30;;;19.50;87.50;;;;;;5052953;28;20494;-62
2022/07/13 00:11:09;;;;;;;2.00;1.47;;;19.50;88.00;;;;;;5052970;28;20513;-63
2022/07/13 00:13:37;;;;;;;1.77;1.30;;;19.40;88.40;;;;;;5035757;28;20476;-63
2022/07/13 00:16:05;;;;;;;1.80;1.70;;;19.50;88.90;;;;;;5052996;28;20525;-62
2022/07/13 00:18:32;;;;;;;3.40;2.00;;;19.40;89.10;;;;;;5053030;28;20448;-61
2022/07/13 00:21:01;;;;;;;1.83;1.67;;;19.50;89.70;;;;;;5062656;28;20509;-61
2022/07/13 00:23:28;;;;;;;1.93;1.70;;;19.50;89.60;;;;;;5067584;28;20502;-62
2022/07/13 00:25:55;;;;;;;2.00;1.80;;;19.50;89.80;;;;;;5074916;28;20859;-62
2022/07/13 00:28:22;;;;;;;2.20;1.70;;;19.50;89.70;;;;;;5066355;28;20518;-61
2022/07/13 00:30:50;;;;;;;1.40;1.30;;;19.50;89.80;;;;;;5062492;28;20492;-61
2022/07/13 00:33:17;;;;;;;1.73;1.20;;;19.50;89.80;;;;;;5076322;28;20443;-61
2022/07/13 00:35:44;;;;;;;3.00;1.70;;;19.50;89.70;;;;;;5076873;28;20474;-61
2022/07/13 00:38:13;;;;;;;1.50;1.40;;;19.50;89.60;;;;;;5076166;28;20451;-62
2022/07/13 00:40:40;;;;;;;2.63;1.73;;;19.50;89.70;;;;;;5076186;28;20463;-61
2022/07/13 00:43:07;;;;;;;1.47;1.30;;;19.50;89.70;;;;;;5075775;28;20532;-62
2022/07/13 00:45:35;;;;;;;1.70;1.60;;;19.50;89.70;;;;;;5077119;28;20447;-61
2022/07/13 00:48:03;;;;;;;3.80;1.70;;;19.50;89.60;;;;;;5076621;28;20447;-61
2022/07/13 00:50:30;;;;;;;1.50;1.40;;;19.50;89.60;;;;;;5076112;28;20471;-60
2022/07/13 00:52:57;;;;;;;1.83;1.73;;;19.50;89.60;;;;;;5060653;28;20448;-61
2022/07/13 00:55:26;;;;;;;2.70;1.80;;;19.50;89.70;;;;;;5071815;28;20657;-62
2022/07/13 00:57:55;;;;;;;1.63;1.30;;;19.60;89.70;;;;;;5059595;28;20483;-62
2022/07/13 01:00:22;;;;;;;2.23;1.77;;;19.50;89.60;;;;;;5058182;28;20464;-60
2022/07/13 01:02:49;;;;;;;1.60;1.40;;;19.50;89.70;;;;;;5062228;28;20458;-61
2022/07/13 01:05:17;;;;;;;1.83;1.73;;;19.50;89.80;;;;;;5076224;28;20542;-61
2022/07/13 01:07:46;;;;;;;2.03;1.20;;;19.60;89.90;;;;;;5068633;28;21011;-61
2022/07/13 01:10:14;;;;;;;6.90;1.60;;;19.60;89.90;;;;;;5074506;28;20478;-61
2022/07/13 01:12:43;;;;;;;1.63;1.53;;;19.60;90.00;;;;;;5076152;28;20505;-61
2022/07/13 01:15:11;;;;;;;2.43;1.60;;;19.50;90.00;;;;;;5076127;28;20887;-61
2022/07/13 01:17:39;;;;;;;2.03;1.17;;;19.60;90.10;;;;;;5075678;28;20504;-61
2022/07/13 01:20:09;;;;;;;2.43;1.30;;;19.50;90.10;;;;;;5063786;28;20472;-61
2022/07/13 01:22:42;;;;;;;1.57;1.47;;;19.50;90.20;;;;;;5058284;28;20860;-61
2022/07/13 01:25:11;;;;;;;2.17;1.60;;;19.50;90.30;;;;;;5076244;28;20431;-61
2022/07/13 01:27:41;;;;;;;1.93;1.73;;;19.50;90.50;;;;;;5068606;28;20448;-61
2022/07/13 01:30:09;;;;;;;2.03;1.40;;;19.50;90.70;;;;;;5055804;28;20547;-62
2022/07/13 01:32:47;;;;;;;1.60;1.50;;;19.40;90.80;;;;;;5064958;28;20527;-61
2022/07/13 01:35:15;;;;;;;3.53;1.67;;;19.40;90.90;;;;;;5064707;28;20471;-62
2022/07/13 01:37:43;;;;;;;2.33;1.30;;;19.40;91.10;;;;;;5055074;28;20445;-62
2022/07/13 01:40:13;;;;;;;3.53;1.80;;;19.40;91.20;;;;;;5055698;28;20464;-62
2022/07/13 01:42:43;;;;;;;4.30;1.50;;;19.40;91.30;;;;;;5055335;28;20444;-61
2022/07/13 01:45:11;;;;;;;2.77;1.63;;;19.40;91.50;;;;;;5055126;28;20920;-62
2022/07/13 01:47:39;;;;;;;2.03;1.60;;;19.40;91.60;;;;;;5065707;28;20440;-61
2022/07/13 01:50:08;;;;;;;2.10;1.63;;;19.40;91.70;;;;;;5075210;28;20635;-61
2022/07/13 01:52:36;;;;;;;1.70;1.40;;;19.40;91.80;;;;;;5075363;28;20534;-61
2022/07/13 01:55:04;;;;;;;1.77;1.60;;;19.40;92.00;;;;;;5075403;28;20489;-61
2022/07/13 01:57:33;;;;;;;1.40;1.30;;;19.40;92.20;;;;;;5075176;28;20517;-61
2022/07/13 02:00:01;;;;;;;2.07;1.40;;;19.30;92.40;;;;;;5074601;28;20466;-62
2022/07/13 02:02:28;;;;;;;1.57;1.30;;;19.30;92.60;;;;;;5072513;28;20895;-61
2022/07/13 02:04:56;;;;;;;2.00;1.80;;;19.30;92.80;;;;;;5074927;28;20531;-62
2022/07/13 02:07:23;;;;;;;2.90;1.47;;;19.20;93.00;;;;;;5074578;28;20455;-63
2022/07/13 02:09:51;;;;;;;3.43;1.90;;;19.20;93.10;;;;;;5074390;28;20499;-62
2022/07/13 02:12:18;;;;;;;2.10;1.70;;;19.20;93.20;;;;;;5074758;28;20492;-61
2022/07/13 02:14:47;;;;;;;1.83;1.73;;;19.20;93.30;;;;;;5067466;28;20522;-61
2022/07/13 02:17:14;;;;;;;2.10;1.90;;;19.20;93.40;;;;;;5055026;28;20444;-61
2022/07/13 02:19:42;;;;;;;1.70;1.60;;;19.20;93.50;;;;;;5054498;28;20571;-63
2022/07/13 02:22:09;;;;;;;1.63;1.53;;;19.20;93.60;;;;;;5070711;28;20452;-62
2022/07/13 02:24:36;;;;;;;3.00;1.37;;;19.20;93.70;;;;;;5074292;28;20542;-61
2022/07/13 02:27:03;;;;;;;1.93;1.40;;;19.20;94.10;;;;;;5061871;28;20456;-61
2022/07/13 02:29:31;;;;;;;4.13;1.60;;;19.20;93.90;;;;;;5060151;28;20841;-61
2022/07/13 02:32:00;;;;;;;1.70;1.60;;;19.30;94.00;;;;;;5059150;28;20525;-62
2022/07/13 02:34:28;;;;;;;2.20;1.90;;;19.20;94.00;;;;;;5058435;28;20514;-61
2022/07/13 02:36:56;;;;;;;1.53;1.40;;;19.20;94.10;;;;;;5056957;28;20599;-61
2022/07/13 02:39:23;;;;;;;2.00;1.53;;;19.30;94.10;;;;;;5056399;28;20448;-62
2022/07/13 02:41:51;;;;;;;2.10;1.37;;;19.20;94.10;;;;;;5069795;28;20879;-61
2022/07/13 02:44:18;;;;;;;1.60;1.50;;;19.30;94.20;;;;;;5054420;28;20444;-62
2022/07/13 02:46:45;;;;;;;1.53;1.10;;;19.30;94.10;;;;;;5055689;28;20435;-62
2022/07/13 02:49:14;;;;;;;3.03;1.60;;;19.20;94.10;;;;;;5055692;28;20444;-62
2022/07/13 02:51:41;;;;;;;2.13;1.80;;;19.30;94.10;;;;;;5072228;28;20518;-63
2022/07/13 02:54:08;;;;;;;1.60;1.30;;;19.30;94.10;;;;;;5056412;28;20453;-61
2022/07/13 02:56:36;;;;;;;1.93;1.77;;;19.30;94.10;;;;;;5054173;28;20467;-61
2022/07/13 02:59:03;;;;;;;2.63;1.80;;;19.30;94.10;;;;;;5054384;28;20535;-62
2022/07/13 03:01:30;;;;;;;1.67;1.57;;;19.30;94.20;;;;;;5054499;28;20464;-61
2022/07/13 03:03:58;;;;;;;1.63;1.53;;;19.30;94.20;;;;;;5055399;28;20502;-62
2022/07/13 03:06:27;;;;;;;1.83;1.70;;;19.30;94.30;;;;;;5040159;28;20449;-62
2022/07/13 03:08:54;;;;;;;1.70;1.47;;;19.30;94.40;;;;;;5059205;28;20475;-62
2022/07/13 03:11:21;;;;;;;1.87;1.40;;;19.20;94.40;;;;;;5054306;28;20471;-62
2022/07/13 03:13:48;;;;;;;1.47;1.37;;;19.30;94.50;;;;;;5054043;28;20485;-62
2022/07/13 03:16:16;;;;;;;2.10;1.90;;;19.30;94.60;;;;;;5053560;28;20476;-62
2022/07/13 03:18:43;;;;;;;2.40;2.20;;;19.30;94.70;;;;;;5057081;28;20444;-61
2022/07/13 03:21:10;;;;;;;2.13;2.03;;;19.20;94.80;;;;;;5069829;28;20520;-61
2022/07/13 03:23:39;;;;;;;2.67;1.87;;;19.30;94.90;;;;;;5053382;28;20944;-60
2022/07/13 03:26:06;;;;;;;2.47;1.83;;;19.30;94.80;;;;;;5053626;28;20440;-62
2022/07/13 03:28:33;;;;;;;1.70;1.50;;;19.30;94.70;;;;;;5072636;28;20492;-61
2022/07/13 03:31:01;;;;;;;2.10;1.90;;;19.30;94.60;;;;;;5072945;28;20566;-64
2022/07/13 03:33:28;;;;;;;1.60;1.50;;;19.30;94.60;;;;;;5053486;28;20440;-62
2022/07/13 03:35:55;;;;;;;1.63;1.53;;;19.30;94.50;;;;;;5054130;28;20472;-62
2022/07/13 03:38:23;;;;;;;1.73;1.63;;;19.30;94.40;;;;;;5053149;28;20452;-61
2022/07/13 03:40:52;;;;;;;3.17;2.00;;;19.40;94.40;;;;;;5053411;28;20472;-62
2022/07/13 03:43:19;;;;;;;1.50;1.40;;;19.40;94.40;;;;;;5053718;28;20449;-62
2022/07/13 03:45:47;;;;;;;2.20;2.00;;;19.40;94.40;;;;;;5074149;28;20447;-61
2022/07/13 03:48:16;;;;;;;2.20;1.63;;;19.40;94.40;;;;;;5055821;28;20536;-62
2022/07/13 03:50:43;;;;;;;1.90;1.80;;;19.40;94.30;;;;;;5070208;28;20481;-62
2022/07/13 03:53:11;;;;;;;1.73;1.40;;;19.40;94.10;;;;;;5073573;28;20816;-61
2022/07/13 03:55:39;;;;;;;3.40;1.80;;;19.40;94.00;;;;;;5073040;28;20566;-62
2022/07/13 03:58:07;;;;;;;1.53;1.43;;;19.50;93.80;;;;;;5072064;28;20501;-61
2022/07/13 04:00:35;;;;;;;1.40;1.30;;;19.50;93.60;;;;;;5056446;28;20932;-61
2022/07/13 04:03:02;;;;;;;2.10;1.83;;;19.50;93.40;;;;;;5053470;28;20885;-61
2022/07/13 04:05:29;;;;;;;1.70;1.60;;;19.60;93.30;;;;;;5072204;28;20478;-62
2022/07/13 04:09:59;;;;;;;2.47;2.27;;;19.60;92.70;;;;;;5132877;27;20601;-62
2022/07/13 04:12:26;;;;;;;3.10;1.80;;;19.70;92.70;;;;;;5122738;27;20473;-60
2022/07/13 04:14:53;;;;;;;1.40;1.30;;;19.70;92.50;;;;;;5111539;28;20434;-62
2022/07/13 04:17:21;;;;;;;2.17;1.60;;;19.80;92.30;;;;;;5110971;28;20452;-62
2022/07/13 04:19:48;;;;;;;1.57;1.47;;;19.90;92.10;;;;;;5122432;28;20503;-63
2022/07/13 04:22:15;;;;;;;2.23;2.03;;;20.00;91.90;;;;;;5125396;28;20976;-62
2022/07/13 04:24:43;;;;;;;1.67;1.57;;;20.10;91.70;;;;;;5110954;28;20450;-62
2022/07/13 04:27:11;;;;;;;2.40;1.87;;;20.10;91.40;;;;;;5112295;28;20840;-60
2022/07/13 04:29:38;;;;;;;2.13;1.80;;;20.10;91.30;;;;;;5122587;28;20507;-60
2022/07/13 04:32:07;;;;;;;2.90;1.90;;;20.20;91.30;;;;;;5131724;28;20449;-62
2022/07/13 04:34:34;;;;;;;1.73;1.63;;;20.20;91.30;;;;;;5131090;27;20520;-60
2022/07/13 04:37:01;;;;;;;5.03;1.70;;;20.20;91.30;;;;;;5130987;28;20453;-62
2022/07/13 04:39:28;;;;;;;3.87;1.77;;;20.20;91.20;;;;;;5131700;28;20536;-61
2022/07/13 04:41:56;;;;;;;2.53;1.70;;;20.20;91.30;;;;;;5124835;27;20450;-61
2022/07/13 04:44:25;;;;;;;2.70;1.73;;;20.20;91.30;;;;;;5110963;28;20467;-61
2022/07/13 04:46:53;;;;;;;3.00;2.20;;;20.20;91.30;;;;;;5112118;28;20446;-61
2022/07/13 04:49:20;;;;;;;2.50;1.70;;;20.30;91.20;;;;;;5114206;28;20505;-62
2022/07/13 04:51:48;;;;;;;1.90;1.70;;;20.40;91.20;;;;;;5133424;27;20525;-62
2022/07/13 04:54:17;;;;;;;2.30;1.97;;;20.40;91.10;;;;;;5129021;28;20443;-62
2022/07/13 04:56:44;;;;;;;3.40;2.00;;;20.40;91.00;;;;;;5112187;28;20445;-61
2022/07/13 04:59:12;;;;;;;2.63;1.60;;;20.50;90.90;;;;;;5110418;28;20899;-61
2022/07/13 05:01:41;;;;;;;2.90;1.70;;;20.50;90.80;;;;;;5119049;28;20458;-61
2022/07/13 05:04:09;;;;;;;2.30;1.90;;;20.60;90.80;;;;;;5111068;28;20967;-62
2022/07/13 05:06:36;;;;;;;5.80;1.40;;;20.70;90.60;;;;;;5089826;28;20439;-60
2022/07/13 05:09:05;;;;;;;3.50;2.37;;;20.70;90.40;;;;;;5102531;28;20474;-63
2022/07/13 05:11:32;;;;;;;2.83;1.60;;;20.80;90.20;;;;;;5118160;27;20500;-62
2022/07/13 05:14:00;;;;;;;2.23;1.90;;;20.90;90.10;;;;;;5120799;28;20454;-61
2022/07/13 05:16:27;;;;;;;2.53;1.83;;;20.90;90.10;;;;;;5110510;28;20568;-61
2022/07/13 05:18:57;;;;;;;2.00;1.80;;;21.00;90.10;;;;;;5123475;28;20441;-61
2022/07/13 05:21:24;;;;;;;1.97;1.87;;;21.00;90.10;;;;;;5104189;28;20460;-62
2022/07/13 05:23:52;;;;;;;3.13;1.60;;;21.00;90.00;;;;;;5101804;28;20868;-60
2022/07/13 05:26:19;;;;;;;3.20;1.60;;;21.10;89.90;;;;;;5116710;28;20443;-60
2022/07/13 05:28:46;;;;;;;7.00;2.50;;;21.10;89.50;;;;;;5117533;28;20475;-60
2022/07/13 05:31:14;;;;;;;5.93;2.00;;;21.20;88.80;;;;;;5122275;28;20458;-61
2022/07/13 05:33:42;;;;;;;3.07;1.90;;;21.30;88.30;;;;;;5122680;28;20852;-60
2022/07/13 05:36:11;;;;;;;3.10;2.00;;;21.40;87.70;;;;;;5125829;28;20451;-61
2022/07/13 05:38:38;;;;;;;3.30;1.90;;;21.40;87.00;;;;;;5127412;28;20450;-60
2022/07/13 05:41:06;;;;;;;2.50;1.80;;;21.50;86.50;;;;;;5084720;28;20464;-60
2022/07/13 05:43:33;;;;;;;3.00;1.47;;;21.70;85.90;;;;;;5082868;28;20456;-61
2022/07/13 05:46:00;;;;;;;2.20;2.00;;;21.80;84.90;;;;;;5075852;28;20950;-61
2022/07/13 05:48:28;;;;;;;3.83;2.23;;;22.00;84.00;;;;;;5075763;28;20474;-61
2022/07/13 05:50:55;;;;;;;3.00;2.40;;;22.20;82.80;;;;;;5075884;28;20988;-61
2022/07/13 05:53:24;;;;;;;4.53;2.00;;;22.40;81.50;;;;;;5076602;28;20461;-61
2022/07/13 05:55:51;;;;;;;3.60;1.87;;;22.60;80.00;;;;;;5077996;28;20966;-60
2022/07/13 05:58:19;;;;;;;3.03;1.93;;;22.70;79.00;;;;;;5076308;28;20516;-60
2022/07/13 06:00:46;;;;;;;1.77;1.50;;;22.80;78.20;;;;;;5076131;28;20473;-59
2022/07/13 06:03:14;;;;;;;4.00;2.63;;;22.80;77.70;;;;;;5076520;28;20454;-61
2022/07/13 06:05:41;;;;;;;2.07;1.60;;;22.80;77.30;;;;;;5075966;28;20505;-61
2022/07/13 06:08:09;;;;;;;2.47;1.60;;;22.80;77.10;;;;;;5074942;28;20458;-61
2022/07/13 06:10:37;;;;;;;2.90;2.30;;;22.80;76.60;;;;;;5074605;28;20469;-62
2022/07/13 06:13:05;;;;;;;2.53;2.33;;;22.90;76.30;;;;;;5083635;28;20473;-63
2022/07/13 06:15:32;;;;;;;7.13;1.77;;;23.10;75.70;;;;;;5114961;28;20534;-61
2022/07/13 06:17:59;;;;;;;2.77;1.70;;;23.20;74.50;;;;;;5111670;28;20444;-61
2022/07/13 06:20:26;;;;;;;4.33;1.77;;;23.60;73.70;;;;;;5094647;28;20814;-63
2022/07/13 06:25:35;;;;;;;2.27;1.97;;;24.20;70.20;;;;;;5095729;28;20527;-63
2022/07/13 06:28:04;;;;;;;3.10;1.93;;;24.50;68.40;;;;;;5094722;28;20443;-63
2022/07/13 06:30:31;;;;;;;3.63;1.87;;;24.60;66.70;;;;;;5094128;28;20516;-61
2022/07/13 06:32:59;;;;;;;3.40;1.50;;;24.70;65.60;;;;;;5093742;28;20449;-62
2022/07/13 06:35:26;;;;;;;4.83;2.33;;;24.80;64.50;;;;;;5094769;28;20441;-62
2022/07/13 06:37:53;;;;;;;2.50;2.10;;;24.80;63.80;;;;;;5094448;28;20501;-61
2022/07/13 06:40:21;;;;;;;2.30;2.10;;;24.80;63.20;;;;;;5094436;28;20463;-62
2022/07/13 06:42:48;;;;;;;2.60;1.83;;;24.90;63.30;;;;;;5094627;28;20575;-62
2022/07/13 06:45:17;;;;;;;1.80;1.70;;;25.10;61.80;;;;;;5094660;28;20504;-62
2022/07/13 06:47:44;;;;;;;2.63;2.00;;;25.40;60.70;;;;;;5094199;28;20464;-60
2022/07/13 06:50:11;;;;;;;3.73;1.80;;;25.70;59.60;;;;;;5100826;28;20481;-63
2022/07/13 06:52:40;;;;;;;3.40;2.10;;;25.90;58.60;;;;;;5114895;28;20451;-62
2022/07/13 06:55:08;;;;;;;4.43;2.30;;;26.10;57.80;;;;;;5114846;28;20445;-61
2022/07/13 06:57:36;;;;;;;2.07;1.87;;;26.20;57.00;;;;;;5114353;28;20450;-62
2022/07/13 07:00:04;;;;;;;2.07;1.87;;;26.20;56.50;;;;;;5114022;28;20461;-63
2022/07/13 07:02:36;;;;;;;3.40;1.73;;;26.20;56.20;;;;;;5096818;28;20456;-63
2022/07/13 07:05:03;;;;;;;2.80;1.80;;;26.20;56.50;;;;;;5094052;28;20447;-62
2022/07/13 07:07:30;;;;;;;1.60;1.50;;;26.20;55.60;;;;;;5097330;28;20538;-64
2022/07/13 07:09:58;;;;;;;2.70;1.80;;;26.10;55.20;;;;;;5114201;28;20480;-62
2022/07/13 07:12:25;;;;;;;3.60;1.77;;;26.20;55.00;;;;;;5114112;28;20439;-62
2022/07/13 07:14:52;;;;;;;1.93;1.73;;;26.30;54.80;;;;;;5114113;28;20864;-63
2022/07/13 07:17:19;;;;;;;3.40;2.30;;;26.40;54.40;;;;;;5113988;28;20444;-61
2022/07/13 07:19:48;;;;;;;5.60;1.97;;;26.70;53.70;;;;;;5114141;28;20460;-62
2022/07/13 07:22:15;;;;;;;2.13;1.93;;;26.90;52.90;;;;;;5110505;28;20518;-62
2022/07/13 07:24:43;;;;;;;3.10;2.00;;;27.10;52.20;;;;;;5093478;28;20507;-62
2022/07/13 07:27:10;;;;;;;2.80;2.23;;;27.10;51.80;;;;;;5098764;28;20926;-63
2022/07/13 07:29:38;;;;;;;2.03;1.70;;;27.20;51.20;;;;;;5094201;28;20568;-61
2022/07/13 07:32:06;;;;;;;4.63;1.90;;;27.40;50.70;;;;;;5093791;28;20445;-63
2022/07/13 07:34:33;;;;;;;2.13;1.93;;;27.50;50.00;;;;;;5093578;28;20540;-63
2022/07/13 07:37:02;;;;;;;4.27;2.50;;;27.60;49.30;;;;;;5100980;28;20446;-63
2022/07/13 07:39:29;;;;;;;2.00;1.80;;;27.80;48.60;;;;;;5097398;28;20484;-63
2022/07/13 07:41:57;;;;;;;2.10;1.73;;;28.00;47.90;;;;;;5093231;28;20541;-63
2022/07/13 07:44:24;;;;;;;3.60;2.30;;;28.20;47.20;;;;;;5093692;28;20532;-63
2022/07/13 07:46:51;;;;;;;3.60;2.60;;;28.30;46.70;;;;;;5093962;28;20440;-62
2022/07/13 07:49:18;;;;;;;2.70;1.80;;;28.50;46.20;;;;;;5094144;28;20262;-62
2022/07/13 07:51:46;;;;;;;4.67;2.03;;;28.60;45.90;;;;;;5098100;28;20468;-63
2022/07/13 07:54:15;;;;;;;1.90;1.67;;;28.60;45.60;;;;;;5095811;28;20444;-62
2022/07/13 07:56:42;;;;;;;2.33;1.97;;;28.80;45.30;;;;;;5094663;28;20876;-60
2022/07/13 07:59:09;;;;;;;3.13;2.93;;;28.90;44.90;;;;;;5095278;28;20537;-62
2022/07/13 08:01:36;;;;;;;2.70;1.87;;;28.80;44.70;;;;;;5094956;28;20465;-63
2022/07/13 08:04:04;;;;;;;1.80;1.43;;;28.90;44.60;;;;;;5095161;28;20440;-63
2022/07/13 08:06:31;;;;;;;2.30;2.00;;;29.10;44.30;;;;;;5094655;28;20478;-61
2022/07/13 08:08:58;;;;;;;4.60;2.10;;;29.10;43.90;;;;;;5094057;28;20452;-61
2022/07/13 08:11:27;;;;;;;2.50;2.13;;;29.30;43.70;;;;;;5093591;28;20558;-63
2022/07/13 08:13:54;;;;;;;3.67;1.80;;;29.50;43.50;;;;;;5094244;28;20877;-63
2022/07/13 08:16:22;;;;;;;5.83;2.40;;;29.70;43.30;;;;;;5093760;28;20444;-61
2022/07/13 08:18:49;;;;;;;4.40;2.20;;;29.90;42.90;;;;;;5093991;28;20948;-62
2022/07/13 08:21:17;;;;;;;4.10;2.20;;;30.00;42.60;;;;;;5093610;28;20504;-62
2022/07/13 08:23:54;;;;;;;2.90;2.10;;;30.00;42.40;;;;;;5093906;28;20448;-63
2022/07/13 08:26:22;;;;;;;3.67;2.00;;;30.10;42.40;;;;;;5093566;28;20437;-63
2022/07/13 08:28:52;;;;;;;3.33;2.00;;;30.10;42.20;;;;;;5093160;28;20449;-61
2022/07/13 08:31:21;;;;;;;2.10;1.90;;;30.20;41.90;;;;;;5093380;28;21016;-61
2022/07/13 08:39:14;;;;;;;1.80;1.60;;;30.50;41.30;;;;;;5093284;28;20417;-63
2022/07/13 08:41:41;;;;;;;2.27;2.00;;;30.50;41.10;;;;;;5092749;28;21071;-62
2022/07/13 08:44:10;;;;;;;7.57;3.13;;;30.50;41.00;;;;;;5092635;28;20440;-63
2022/07/13 08:46:38;;;;;;;5.80;2.20;;;30.40;40.80;;;;;;5097587;28;20449;-63
2022/07/13 08:49:06;;;;;;;6.70;2.77;;;30.40;40.90;;;;;;5111636;28;20509;-62
2022/07/13 08:51:34;;;;;;;4.67;2.40;;;30.40;40.70;;;;;;5113707;28;20559;-61
2022/07/13 08:54:03;;;;;;;7.13;3.50;;;30.50;40.50;;;;;;5098833;28;20498;-63
2022/07/13 08:56:31;;;;;;;4.73;3.03;;;30.50;40.40;;;;;;5096155;28;20470;-62
2022/07/13 08:58:59;;;;;;;2.90;2.00;;;30.50;40.40;;;;;;5096921;28;20455;-65
2022/07/13 09:01:27;;;;;;;4.07;2.80;;;30.50;40.30;;;;;;5096505;28;20550;-63
2022/07/13 09:03:54;;;;;;;3.53;2.70;;;30.60;40.10;;;;;;5096686;28;20791;-62
2022/07/13 09:06:47;;;;;;;3.60;2.20;;;30.80;39.90;;;;;;5096600;28;20574;-63
2022/07/13 09:09:30;;;;;;;1.97;1.80;;;30.90;39.50;;;;;;5096183;28;20456;-61
2022/07/13 09:12:17;;;;;;;1.80;1.70;;;30.90;38.80;;;;;;5095992;28;20467;-63
2022/07/13 09:14:53;;;;;;;3.60;1.60;;;30.80;37.90;;;;;;5096413;28;20429;-63
2022/07/13 09:17:42;;;;;;;1.70;1.60;;;30.80;37.50;;;;;;5097178;28;20542;-63
2022/07/13 09:20:22;;;;;;;2.60;1.70;;;30.80;36.90;;;;;;5096728;28;20460;-63
2022/07/13 09:22:51;;;;;;;2.20;2.00;;;30.70;36.60;;;;;;5096794;28;20886;-64
2022/07/13 09:25:29;;;;;;;3.60;1.53;;;30.70;36.80;;;;;;5096131;28;20480;-63
2022/07/13 09:27:57;;;;;;;2.80;2.00;;;30.80;36.60;;;;;;5095670;28;20449;-64
2022/07/13 09:30:26;;;;;;;3.20;1.80;;;30.80;36.40;;;;;;5095764;28;20515;-61
2022/07/13 09:32:59;;;;;;;8.23;2.00;;;31.00;36.40;;;;;;5096189;28;20468;-63
2022/07/13 09:35:44;;;;;;;4.13;2.10;;;31.10;36.30;;;;;;5096055;28;20433;-63
2022/07/13 09:38:29;;;;;;;2.33;2.00;;;31.30;36.20;;;;;;5095905;28;20458;-63
2022/07/13 09:40:57;;;;;;;2.60;2.40;;;31.50;35.70;;;;;;5095512;28;21069;-63
2022/07/13 09:46:12;;;;;;;1.93;1.53;;;32.10;35.10;;;;;;5095625;28;20483;-63
2022/07/13 09:48:41;;;;;;;2.00;1.73;;;32.30;34.90;;;;;;5096045;28;20522;-63
2022/07/13 09:51:09;;;;;;;2.23;1.50;;;32.20;34.50;;;;;;5095293;28;21074;-65
2022/07/13 09:53:37;;;;;;;3.60;2.20;;;32.00;34.60;;;;;;5115853;28;20948;-64
2022/07/13 09:56:06;;;;;;;2.13;1.60;;;32.00;34.90;;;;;;5102771;28;20491;-62
2022/07/13 09:58:35;;;;;;;2.53;2.03;;;31.90;34.90;;;;;;5095504;28;20561;-63
2022/07/13 10:01:03;;;;;;;3.17;1.90;;;31.90;35.10;;;;;;5101763;28;20461;-64
2022/07/13 10:03:31;;;;;;;3.13;1.83;;;31.90;35.30;;;;;;5114426;28;20555;-65
2022/07/13 10:06:01;;;;;;;3.20;2.20;;;31.80;35.60;;;;;;5115500;28;20549;-65
2022/07/13 10:08:30;;;;;;;2.53;2.30;;;31.70;35.90;;;;;;5102733;27;20516;-65
2022/07/13 10:10:57;;;;;;;3.53;2.00;;;31.60;36.00;;;;;;5095512;28;20492;-65
2022/07/13 10:13:24;;;;;;;3.23;2.10;;;31.60;36.10;;;;;;5095698;28;20451;-64
2022/07/13 10:15:52;;;;;;;2.87;2.00;;;31.50;35.80;;;;;;5095179;28;20453;-63
2022/07/13 10:18:23;;;;;;;3.90;2.70;;;31.40;35.70;;;;;;5095886;28;20491;-64
2022/07/13 10:20:55;;;;;;;2.30;1.93;;;31.40;35.60;;;;;;5096555;28;20461;-65
2022/07/13 10:23:38;;;;;;;6.80;2.40;;;31.50;35.10;;;;;;5096448;28;20430;-64
2022/07/13 10:26:18;;;;;;;3.03;2.00;;;31.70;34.60;;;;;;5096044;28;20841;-65
2022/07/13 10:29:02;;;;;;;3.97;2.30;;;31.70;34.30;;;;;;5095147;28;20430;-66
2022/07/13 10:31:31;;;;;;;5.33;2.00;;;31.80;34.00;;;;;;5095748;28;20523;-65
2022/07/13 10:33:58;;;;;;;3.73;1.73;;;31.80;33.80;;;;;;5112057;28;20544;-63
2022/07/13 10:36:55;;;;;;;2.90;1.93;;;31.80;33.80;;;;;;5116941;28;20448;-65
2022/07/13 10:39:25;;;;;;;3.50;2.17;;;31.80;33.90;;;;;;5116102;28;21024;-64
2022/07/13 10:42:00;;;;;;;7.53;1.93;;;31.80;34.00;;;;;;5117314;28;20460;-64
2022/07/13 10:44:38;;;;;;;2.17;1.87;;;31.60;33.90;;;;;;5116326;28;20431;-63
2022/07/13 10:47:07;;;;;;;4.83;1.87;;;31.40;34.20;;;;;;5116359;28;20511;-63
2022/07/13 10:49:36;;;;;;;2.00;1.80;;;31.30;34.50;;;;;;5100030;28;20449;-65
2022/07/13 10:52:51;;;;;;;3.23;1.97;;;31.30;34.70;;;;;;5096521;28;20460;-64
2022/07/13 10:55:48;;;;;;;2.57;1.97;;;31.20;35.00;;;;;;5108630;28;20451;-65
2022/07/13 10:58:42;;;;;;;2.40;2.00;;;31.40;35.10;;;;;;5115514;27;20456;-63
2022/07/13 11:01:40;;;;;;;2.33;2.03;;;31.60;35.10;;;;;;5097130;28;20476;-65
2022/07/13 11:04:08;;;;;;;6.57;2.00;;;31.80;35.20;;;;;;5117194;28;20471;-63
2022/07/13 11:06:36;;;;;;;3.83;2.10;;;31.80;35.20;;;;;;5118152;28;20947;-65
2022/07/13 11:09:24;;;;;;;2.17;1.67;;;31.60;35.50;;;;;;5125457;28;20470;-64
2022/07/13 11:11:54;;;;;;;2.30;1.80;;;31.30;35.90;;;;;;5111669;27;20523;-64
2022/07/13 11:14:59;;;;;;;2.60;2.30;;;31.20;36.40;;;;;;5104841;28;20481;-65
2022/07/13 11:17:28;;;;;;;1.90;1.47;;;31.30;36.50;;;;;;5096850;28;20453;-65
2022/07/13 11:20:00;;;;;;;3.93;2.00;;;31.40;36.40;;;;;;5098676;28;20500;-64
2022/07/13 11:25:13;;;;;;;4.00;1.63;;;31.40;36.70;;;;;;5097870;28;20466;-64
2022/07/13 11:25:40;;;;;;;3.97;1.90;;;31.20;36.90;;;;;;5099410;28;20902;-64
2022/07/13 11:28:22;;;;;;;1.70;1.60;;;30.90;37.40;;;;;;5098442;28;20445;-65
2022/07/13 11:30:54;;;;;;;3.53;1.83;;;30.70;37.90;;;;;;5096362;28;20502;-64
2022/07/13 11:33:22;;;;;;;2.13;1.80;;;30.40;38.60;;;;;;5096365;28;20545;-64
2022/07/13 11:35:50;;;;;;;3.07;2.20;;;30.20;39.00;;;;;;5097012;28;20475;-64
2022/07/13 11:38:19;;;;;;;2.43;1.70;;;30.10;39.40;;;;;;5096950;28;20498;-65
2022/07/13 11:40:47;;;;;;;3.60;2.07;;;30.10;39.70;;;;;;5097077;28;20464;-64
2022/07/13 11:43:16;;;;;;;3.00;1.73;;;30.10;39.90;;;;;;5098363;28;20441;-65
2022/07/13 11:45:44;;;;;;;2.10;1.90;;;30.30;39.90;;;;;;5098419;28;20505;-63
2022/07/13 11:48:13;;;;;;;2.80;2.10;;;30.40;39.80;;;;;;5097992;28;20454;-63
2022/07/13 11:50:42;;;;;;;2.10;1.70;;;30.60;39.90;;;;;;5097154;28;20481;-63
2022/07/13 11:53:11;;;;;;;4.17;2.27;;;30.80;39.50;;;;;;5101028;28;20477;-65
2022/07/13 11:55:38;;;;;;;6.07;2.60;;;30.80;39.40;;;;;;5095271;28;20454;-65
2022/07/13 11:58:32;;;;;;;4.47;2.87;;;30.80;39.70;;;;;;5108239;28;20476;-63
2022/07/13 12:01:00;;;;;;;3.70;2.60;;;30.90;39.80;;;;;;5097380;28;20461;-65
2022/07/13 12:03:29;;;;;;;2.73;2.27;;;31.10;39.60;;;;;;5116152;28;20447;-65
2022/07/13 12:06:01;;;;;;;2.03;1.93;;;31.20;39.40;;;;;;5113738;28;20444;-66
2022/07/13 12:08:31;;;;;;;3.47;2.07;;;31.30;39.40;;;;;;5097714;28;20860;-67
2022/07/13 12:10:59;;;;;;;3.10;2.00;;;31.60;39.10;;;;;;5107945;28;20501;-66
2022/07/13 12:13:26;;;;;;;6.67;2.13;;;32.00;38.40;;;;;;5121833;28;20504;-65
2022/07/13 12:15:55;;;;;;;2.90;2.13;;;32.30;38.00;;;;;;5122428;28;20473;-66
2022/07/13 12:18:22;;;;;;;3.03;2.30;;;32.50;37.80;;;;;;5118366;28;20537;-65
2022/07/13 12:20:50;;;;;;;3.17;2.27;;;33.00;36.90;;;;;;5114322;28;20462;-65
2022/07/13 12:23:18;;;;;;;3.03;1.87;;;33.40;36.20;;;;;;5117107;28;20445;-66
2022/07/13 12:25:47;;;;;;;2.53;1.90;;;33.40;35.40;;;;;;5135631;22;21130;-64
2022/07/13 12:28:14;;;;;;;3.37;2.20;;;33.10;35.40;;;;;;5072150;28;20823;-64
2022/07/13 12:30:59;;;;;;;2.50;2.30;;;32.60;36.00;;;;;;5074537;28;20855;-64
2022/07/13 12:33:26;;;;;;;3.20;2.30;;;32.20;36.50;;;;;;5076048;28;20446;-64
2022/07/13 12:36:04;;;;;;;1.90;1.80;;;31.80;37.00;;;;;;5076586;28;20895;-64
2022/07/13 12:38:32;;;;;;;6.10;2.37;;;31.60;37.40;;;;;;5076677;28;20815;-64
2022/07/13 12:41:01;;;;;;;1.97;1.80;;;31.70;37.50;;;;;;5076489;28;20440;-63
2022/07/13 12:43:30;;;;;;;2.83;2.03;;;31.70;37.30;;;;;;5075688;28;20438;-64
2022/07/13 12:46:00;;;;;;;2.47;2.13;;;31.60;37.30;;;;;;5080469;28;20548;-61
2022/07/13 12:48:29;;;;;;;9.43;2.00;;;31.40;37.50;;;;;;5076026;28;20435;-61
2022/07/13 12:51:02;;;;;;;2.80;1.90;;;31.20;37.80;;;;;;5076630;28;20486;-62
2022/07/13 12:53:47;;;;;;;2.57;1.93;;;31.10;38.10;;;;;;5077617;28;20492;-61
2022/07/13 12:56:16;;;;;;;4.90;2.27;;;31.20;38.30;;;;;;5077178;28;20872;-62
2022/07/13 12:58:46;;;;;;;3.30;2.43;;;31.20;38.20;;;;;;5076705;28;20481;-62
2022/07/13 13:01:28;;;;;;;2.70;2.50;;;31.20;38.20;;;;;;5076397;28;20450;-64
2022/07/13 13:03:56;;;;;;;2.80;2.60;;;31.10;38.20;;;;;;5077860;28;20437;-63
2022/07/13 13:06:23;;;;;;;5.40;2.70;;;30.90;38.40;;;;;;5075869;28;20575;-62
2022/07/13 13:08:51;;;;;;;2.50;2.07;;;30.70;38.70;;;;;;5076181;28;20434;-62
2022/07/13 13:11:19;;;;;;;4.53;2.23;;;30.50;39.10;;;;;;5076106;28;20572;-62
2022/07/13 13:13:46;;;;;;;4.83;2.70;;;30.30;39.60;;;;;;5076888;28;20488;-61